Terminal Aerodrome Forecast
Issued by NWS

Home | Current Version | Previous Version | Graphics & Text | Print | Product List | Glossary On
Versions: 1 2 3 4 5 6 7 8 9 10 11 12 13 14 15 16 17 18 19 20
000
FTUS43 KIWX 191700
TAFSBN
TAF
KSBN 191737Z 1918/2018 21012G18KT P6SM VCTS SCT025CB BKN040
      TEMPO 1919/1922 29015G35KT 3SM TSRA BKN030CB
     FM192200 23011KT P6SM BKN035
     FM200000 22006KT P6SM BKN050
     FM200600 23005KT 3SM BR SCT020
     FM201400 27010KT P6SM SCT025=

USA.gov is the U.S. government's official web portal to all federal, state and local government web resources and services.